Time,TemperatureF,DewpointF,PressureIn,WindDirection,WindDirectionDegrees,WindSpeedMPH,WindSpeedGustMPH,Humidity,HourlyPrecipIn,Conditions,Clouds,dailyrainin,SolarRadiationWatts/m^2,SoftwareType,DateUTC
2013-03-09 00:06:00,45.8,44.0,30.22,NNE,13,0.0,0.0,92,0.00,,,0.00,0,weatherlink.com 1.10,2013-03-09 05:06:00,
2013-03-09 00:21:00,45.5,44.0,30.22,NNE,13,0.0,0.0,93,0.00,,,0.00,0,weatherlink.com 1.10,2013-03-09 05:21:00,
2013-03-09 00:37:00,45.3,43.0,30.22,NNE,13,0.0,0.0,93,0.00,,,0.00,0,weatherlink.com 1.10,2013-03-09 05:37:00,
2013-03-09 00:52:00,45.2,44.0,30.22,NNE,13,0.0,0.0,94,0.00,,,0.00,0,weatherlink.com 1.10,2013-03-09 05:52:00,
2013-03-09 01:07:00,45.0,43.0,30.22,NNE,13,0.0,0.0,94,0.00,,,0.00,0,weatherlink.com 1.10,2013-03-09 06:07:00,
2013-03-09 01:22:00,45.0,43.0,30.21,NNE,13,0.0,0.0,94,0.00,,,0.00,0,weatherlink.com 1.10,2013-03-09 06:22:00,
2013-03-09 01:37:00,45.0,43.0,30.21,NNE,13,0.0,0.0,94,0.00,,,0.00,0,weatherlink.com 1.10,2013-03-09 06:37:00,
2013-03-09 01:52:00,45.1,44.0,30.20,NNE,13,0.0,0.0,95,0.00,,,0.00,0,weatherlink.com 1.10,2013-03-09 06:52:00,
2013-03-09 02:07:00,45.9,45.0,30.19,NNE,13,0.0,0.0,95,0.00,,,0.00,0,weatherlink.com 1.10,2013-03-09 07:07:00,
2013-03-09 02:23:00,47.1,46.0,30.18,North,360,1.0,3.0,96,0.00,,,0.00,0,weatherlink.com 1.10,2013-03-09 07:23:00,
2013-03-09 02:37:00,47.8,47.0,30.18,North,11,1.0,2.0,96,0.00,,,0.00,0,weatherlink.com 1.10,2013-03-09 07:37:00,
2013-03-09 02:53:00,48.2,47.0,30.18,North,5,2.0,4.0,96,0.00,,,0.00,0,weatherlink.com 1.10,2013-03-09 07:53:00,
2013-03-09 03:08:00,48.8,47.0,30.18,North,355,2.0,4.0,94,0.00,,,0.00,0,weatherlink.com 1.10,2013-03-09 08:08:00,
2013-03-09 03:23:00,49.0,47.0,30.18,North,10,2.0,3.0,92,0.00,,,0.00,0,weatherlink.com 1.10,2013-03-09 08:23:00,
2013-03-09 03:38:00,48.7,47.0,30.17,North,10,0.0,2.0,92,0.00,,,0.00,0,weatherlink.com 1.10,2013-03-09 08:38:00,
2013-03-09 03:54:00,48.3,46.0,30.16,North,10,0.0,2.0,92,0.00,,,0.00,0,weatherlink.com 1.10,2013-03-09 08:54:00,
2013-03-09 04:08:00,48.1,46.0,30.17,North,360,2.0,3.0,92,0.00,,,0.00,0,weatherlink.com 1.10,2013-03-09 09:08:00,
2013-03-09 04:23:00,47.9,46.0,30.17,NNW,344,1.0,3.0,92,0.00,,,0.00,0,weatherlink.com 1.10,2013-03-09 09:23:00,
2013-03-09 04:38:00,47.9,46.0,30.16,North,355,0.0,3.0,92,0.00,,,0.00,0,weatherlink.com 1.10,2013-03-09 09:38:00,
2013-03-09 04:53:00,47.5,45.0,30.17,North,351,0.0,3.0,92,0.00,,,0.00,0,weatherlink.com 1.10,2013-03-09 09:53:00,
2013-03-09 05:09:00,47.1,45.0,30.18,NNW,339,1.0,3.0,92,0.00,,,0.00,0,weatherlink.com 1.10,2013-03-09 10:09:00,
2013-03-09 05:24:00,46.8,45.0,30.18,North,360,0.0,1.0,93,0.00,,,0.00,0,weatherlink.com 1.10,2013-03-09 10:24:00,
2013-03-09 05:39:00,46.5,45.0,30.19,North,360,0.0,1.0,93,0.00,,,0.00,0,weatherlink.com 1.10,2013-03-09 10:39:00,
2013-03-09 05:54:00,46.1,44.0,30.20,North,360,1.0,2.0,93,0.00,,,0.00,0,weatherlink.com 1.10,2013-03-09 10:54:00,
2013-03-09 06:09:00,46.0,44.0,30.20,North,355,0.0,2.0,94,0.00,,,0.00,0,weatherlink.com 1.10,2013-03-09 11:09:00,
2013-03-09 06:24:00,46.0,44.0,30.20,North,355,1.0,2.0,94,0.00,,,0.00,0,weatherlink.com 1.10,2013-03-09 11:24:00,
2013-03-09 06:39:00,45.8,44.0,30.20,North,355,0.0,1.0,94,0.00,,,0.00,0,weatherlink.com 1.10,2013-03-09 11:39:00,
2013-03-09 06:54:00,45.6,44.0,30.21,North,355,2.0,3.0,94,0.00,,,0.00,12,weatherlink.com 1.10,2013-03-09 11:54:00,
2013-03-09 07:10:00,46.0,45.0,30.21,NNE,14,0.0,2.0,95,0.00,,,0.00,23,weatherlink.com 1.10,2013-03-09 12:10:00,
2013-03-09 07:25:00,46.9,46.0,30.22,North,355,2.0,3.0,96,0.00,,,0.00,32,weatherlink.com 1.10,2013-03-09 12:25:00,
2013-03-09 07:40:00,48.3,47.0,30.22,North,355,0.0,2.0,96,0.00,,,0.00,47,weatherlink.com 1.10,2013-03-09 12:40:00,
2013-03-09 07:55:00,50.3,49.0,30.23,North,9,3.0,4.0,94,0.00,,,0.00,220,weatherlink.com 1.10,2013-03-09 12:55:00,
2013-03-09 08:10:00,53.7,51.0,30.23,North,5,1.0,3.0,89,0.00,,,0.00,278,weatherlink.com 1.10,2013-03-09 13:10:00,
2013-03-09 08:25:00,57.5,52.0,30.24,North,355,2.0,4.0,82,0.00,,,0.00,336,weatherlink.com 1.10,2013-03-09 13:25:00,
2013-03-09 08:40:00,61.0,54.0,30.24,NNW,348,2.0,4.0,77,0.00,,,0.00,417,weatherlink.com 1.10,2013-03-09 13:40:00,
2013-03-09 08:56:00,64.3,54.0,30.25,North,351,1.0,3.0,70,0.00,,,0.00,480,weatherlink.com 1.10,2013-03-09 13:56:00,
2013-03-09 09:11:00,68.1,57.0,30.24,North,355,4.0,5.0,67,0.00,,,0.00,533,weatherlink.com 1.10,2013-03-09 14:11:00,
2013-03-09 09:26:00,69.7,55.0,30.25,NNW,333,0.0,4.0,59,0.00,,,0.00,585,weatherlink.com 1.10,2013-03-09 14:26:00,
2013-03-09 09:41:00,71.4,56.0,30.25,NNE,19,1.0,6.0,58,0.00,,,0.00,591,weatherlink.com 1.10,2013-03-09 14:41:00,
2013-03-09 09:56:00,71.2,54.0,30.24,NE,36,0.0,7.0,54,0.00,,,0.00,171,weatherlink.com 1.10,2013-03-09 14:56:00,
2013-03-09 10:11:00,70.0,54.0,30.25,NNE,22,2.0,10.0,58,0.00,,,0.00,814,weatherlink.com 1.10,2013-03-09 15:11:00,
2013-03-09 10:26:00,70.8,54.0,30.25,NE,46,4.0,9.0,55,0.00,,,0.00,283,weatherlink.com 1.10,2013-03-09 15:26:00,
2013-03-09 10:41:00,71.0,53.0,30.25,NE,43,2.0,9.0,54,0.00,,,0.00,795,weatherlink.com 1.10,2013-03-09 15:41:00,
2013-03-09 10:57:00,72.0,53.0,30.25,East,92,2.0,8.0,51,0.00,,,0.00,469,weatherlink.com 1.10,2013-03-09 15:57:00,
2013-03-09 11:12:00,72.3,53.0,30.26,NE,40,0.0,7.0,50,0.00,,,0.00,977,weatherlink.com 1.10,2013-03-09 16:12:00,
2013-03-09 11:27:00,74.6,54.0,30.26,NNW,327,4.0,11.0,49,0.00,,,0.00,870,weatherlink.com 1.10,2013-03-09 16:27:00,
2013-03-09 11:42:00,74.0,54.0,30.26,North,5,6.0,8.0,49,0.00,,,0.00,636,weatherlink.com 1.10,2013-03-09 16:42:00,
2013-03-09 11:57:00,73.6,53.0,30.26,East,85,3.0,7.0,49,0.00,,,0.00,323,weatherlink.com 1.10,2013-03-09 16:57:00,
2013-03-09 12:12:00,73.2,54.0,30.25,North,351,4.0,9.0,51,0.00,,,0.00,916,weatherlink.com 1.10,2013-03-09 17:12:00,
2013-03-09 12:27:00,73.5,52.0,30.24,NNE,22,1.0,9.0,48,0.00,,,0.00,1011,weatherlink.com 1.10,2013-03-09 17:27:00,
2013-03-09 12:42:00,73.6,53.0,30.24,ENE,60,3.0,9.0,48,0.00,,,0.00,861,weatherlink.com 1.10,2013-03-09 17:42:00,
2013-03-09 12:57:00,73.5,54.0,30.23,North,350,11.0,11.0,50,0.00,,,0.00,962,weatherlink.com 1.10,2013-03-09 17:57:00,
2013-03-09 13:13:00,73.8,52.0,30.23,ENE,77,3.0,9.0,46,0.00,,,0.00,657,weatherlink.com 1.10,2013-03-09 18:13:00,
2013-03-09 13:28:00,73.2,51.0,30.22,North,355,5.0,9.0,46,0.00,,,0.00,884,weatherlink.com 1.10,2013-03-09 18:28:00,
2013-03-09 13:43:00,74.0,52.0,30.21,ENE,62,1.0,10.0,46,0.00,,,0.00,879,weatherlink.com 1.10,2013-03-09 18:43:00,
2013-03-09 13:58:00,73.5,54.0,30.21,NNW,340,2.0,8.0,50,0.00,,,0.00,851,weatherlink.com 1.10,2013-03-09 18:58:00,
2013-03-09 14:13:00,73.4,54.0,30.20,North,10,4.0,14.0,50,0.00,,,0.00,830,weatherlink.com 1.10,2013-03-09 19:13:00,
2013-03-09 14:28:00,72.7,52.0,30.20,ENE,69,5.0,9.0,49,0.00,,,0.00,788,weatherlink.com 1.10,2013-03-09 19:28:00,
2013-03-09 14:43:00,72.6,52.0,30.20,NE,49,1.0,9.0,48,0.00,,,0.00,504,weatherlink.com 1.10,2013-03-09 19:43:00,
2013-03-09 14:58:00,71.2,52.0,30.20,ENE,66,2.0,9.0,51,0.00,,,0.00,373,weatherlink.com 1.10,2013-03-09 19:58:00,
2013-03-09 15:13:00,70.9,51.0,30.20,NNW,345,3.0,8.0,50,0.00,,,0.00,271,weatherlink.com 1.10,2013-03-09 20:13:00,
2013-03-09 15:29:00,69.9,52.0,30.19,NE,55,5.0,7.0,54,0.00,,,0.00,232,weatherlink.com 1.10,2013-03-09 20:29:00,
2013-03-09 15:44:00,69.6,52.0,30.19,NE,37,4.0,8.0,54,0.00,,,0.00,193,weatherlink.com 1.10,2013-03-09 20:44:00,
2013-03-09 15:59:00,69.4,52.0,30.19,SE,134,4.0,8.0,54,0.00,,,0.00,229,weatherlink.com 1.10,2013-03-09 20:59:00,
2013-03-09 16:14:00,69.4,51.0,30.19,SE,136,1.0,11.0,53,0.00,,,0.00,213,weatherlink.com 1.10,2013-03-09 21:14:00,
2013-03-09 16:29:00,69.2,52.0,30.20,North,355,5.0,10.0,55,0.00,,,0.00,116,weatherlink.com 1.10,2013-03-09 21:29:00,
2013-03-09 16:44:00,68.2,52.0,30.20,ESE,107,2.0,8.0,56,0.00,,,0.00,137,weatherlink.com 1.10,2013-03-09 21:44:00,
2013-03-09 16:59:00,67.6,52.0,30.20,West,277,1.0,8.0,58,0.00,,,0.00,91,weatherlink.com 1.10,2013-03-09 21:59:00,
2013-03-09 17:14:00,67.4,52.0,30.20,North,5,7.0,7.0,58,0.00,,,0.00,76,weatherlink.com 1.10,2013-03-09 22:14:00,
2013-03-09 17:29:00,67.0,51.0,30.21,NNW,344,4.0,8.0,57,0.00,,,0.00,56,weatherlink.com 1.10,2013-03-09 22:29:00,
2013-03-09 17:45:00,66.2,51.0,30.21,East,90,1.0,6.0,58,0.00,,,0.00,33,weatherlink.com 1.10,2013-03-09 22:45:00,
2013-03-09 18:00:00,65.7,51.0,30.21,NNW,344,3.0,5.0,59,0.00,,,0.00,21,weatherlink.com 1.10,2013-03-09 23:00:00,
2013-03-09 18:15:00,65.3,51.0,30.22,North,350,3.0,7.0,60,0.00,,,0.00,9,weatherlink.com 1.10,2013-03-09 23:15:00,
2013-03-09 18:30:00,64.9,51.0,30.22,ENE,57,0.0,3.0,61,0.00,,,0.00,0,weatherlink.com 1.10,2013-03-09 23:30:00,
2013-03-09 18:45:00,64.5,51.0,30.22,North,5,0.0,3.0,62,0.00,,,0.00,0,weatherlink.com 1.10,2013-03-09 23:45:00,
2013-03-09 19:00:00,64.0,51.0,30.22,East,94,0.0,2.0,63,0.00,,,0.00,0,weatherlink.com 1.10,2013-03-10 00:00:00,
2013-03-09 19:15:00,63.5,51.0,30.21,North,9,0.0,2.0,64,0.00,,,0.00,0,weatherlink.com 1.10,2013-03-10 00:15:00,
2013-03-09 19:30:00,63.0,51.0,30.21,NE,36,0.0,1.0,65,0.00,,,0.00,0,weatherlink.com 1.10,2013-03-10 00:30:00,
2013-03-09 19:45:00,62.3,52.0,30.22,NE,36,0.0,1.0,68,0.00,,,0.00,0,weatherlink.com 1.10,2013-03-10 00:45:00,
2013-03-09 20:01:00,61.7,51.0,30.22,NE,36,0.0,0.0,69,0.00,,,0.00,0,weatherlink.com 1.10,2013-03-10 01:01:00,
2013-03-09 20:16:00,61.0,52.0,30.23,NNW,347,0.0,3.0,71,0.00,,,0.00,0,weatherlink.com 1.10,2013-03-10 01:16:00,
2013-03-09 20:31:00,60.5,52.0,30.23,NNW,346,0.0,2.0,73,0.00,,,0.00,0,weatherlink.com 1.10,2013-03-10 01:31:00,
2013-03-09 20:46:00,59.8,52.0,30.23,NNW,346,0.0,1.0,74,0.00,,,0.00,0,weatherlink.com 1.10,2013-03-10 01:46:00,
2013-03-09 21:02:00,59.0,52.0,30.23,NNW,346,0.0,1.0,77,0.00,,,0.00,0,weatherlink.com 1.10,2013-03-10 02:02:00,
2013-03-09 21:16:00,58.3,51.0,30.23,NNW,346,0.0,0.0,78,0.00,,,0.00,0,weatherlink.com 1.10,2013-03-10 02:16:00,
2013-03-09 21:31:00,57.8,51.0,30.23,NNW,346,0.0,0.0,79,0.00,,,0.00,0,weatherlink.com 1.10,2013-03-10 02:31:00,
2013-03-09 21:46:00,57.1,51.0,30.23,NNW,346,0.0,0.0,81,0.00,,,0.00,0,weatherlink.com 1.10,2013-03-10 02:46:00,
2013-03-09 22:01:00,56.5,51.0,30.22,NNW,346,0.0,0.0,82,0.00,,,0.00,0,weatherlink.com 1.10,2013-03-10 03:01:00,
2013-03-09 22:17:00,55.8,51.0,30.22,NNW,346,0.0,0.0,83,0.00,,,0.00,0,weatherlink.com 1.10,2013-03-10 03:17:00,
2013-03-09 22:32:00,55.1,50.0,30.23,NNW,346,0.0,0.0,84,0.00,,,0.00,0,weatherlink.com 1.10,2013-03-10 03:32:00,
2013-03-09 22:47:00,54.5,50.0,30.23,NNW,346,0.0,0.0,85,0.00,,,0.00,0,weatherlink.com 1.10,2013-03-10 03:47:00,
2013-03-09 23:02:00,54.1,50.0,30.24,NNW,346,0.0,0.0,86,0.00,,,0.00,0,weatherlink.com 1.10,2013-03-10 04:02:00,
2013-03-09 23:17:00,54.1,50.0,30.23,NNW,346,0.0,0.0,87,0.00,,,0.00,0,weatherlink.com 1.10,2013-03-10 04:17:00,
2013-03-09 23:32:00,54.3,51.0,30.22,NNW,346,0.0,0.0,87,0.00,,,0.00,0,weatherlink.com 1.10,2013-03-10 04:32:00,
2013-03-09 23:47:00,54.3,51.0,30.22,NNW,346,0.0,0.0,87,0.00,,,0.00,0,weatherlink.com 1.10,2013-03-10 04:47:00,